logo
Search for airport 
image banner adimage banner adimage banner ad
image banner ad

HLWD - Beni Walid

Located in Bani Walid, Libyan Arab Jamahiriya

ICAO - , IATA - QBL

Data provided by Airmate  

General information

Coordinates: N31°44'23" E13°57'14"
Elevation is 1000 feet MSL.
Magnetic variation is 3° East
View others Airports in Misurata District

Operational data

Special qualification required
Current time UTC:
Current local time:
Weather at : - ( 0 km )
METAR: CYPD 152038Z AUTO 20008KT 9SM VCTS FEW043 BKN055 BKN083 27/21 A2981 RMK SLP094 DENSITY ALT 2000FT
View NOTAMs / SUP AIP / TFR affecting this airport [VIEW]
Communications frequencies: [VIEW]

Runways:

RWY identifierQFULength (ft)Width (ft)SurfaceLDA (ft)
185906148ASPH
365906148ASPH

Airport contact information

Address: Bani Walid Libyan Arab Jamahiriya

Satellite view of HLWD